sensor_id;sensor_type;location;lat;lon;timestamp;P1;durP1;ratioP1;P2;durP2;ratioP2
17283;SDS011;8760;52.248;20.952;2022-12-08T00:01:31;9.67;;;5.83;;
17283;SDS011;8760;52.248;20.952;2022-12-08T00:04:00;7.47;;;5.23;;
17283;SDS011;8760;52.248;20.952;2022-12-08T00:06:28;12.77;;;6.20;;
17283;SDS011;8760;52.248;20.952;2022-12-08T00:09:15;8.67;;;5.10;;
17283;SDS011;8760;52.248;20.952;2022-12-08T00:11:46;8.20;;;4.83;;
17283;SDS011;8760;52.248;20.952;2022-12-08T00:14:15;6.90;;;4.60;;
17283;SDS011;8760;52.248;20.952;2022-12-08T00:16:42;7.30;;;4.63;;
17283;SDS011;8760;52.248;20.952;2022-12-08T00:19:09;8.23;;;4.33;;
17283;SDS011;8760;52.248;20.952;2022-12-08T00:21:36;9.00;;;4.20;;
17283;SDS011;8760;52.248;20.952;2022-12-08T00:24:03;6.87;;;4.20;;
17283;SDS011;8760;52.248;20.952;2022-12-08T00:26:30;5.20;;;3.27;;
17283;SDS011;8760;52.248;20.952;2022-12-08T00:28:57;5.20;;;3.37;;
17283;SDS011;8760;52.248;20.952;2022-12-08T00:31:25;5.70;;;3.10;;
17283;SDS011;8760;52.248;20.952;2022-12-08T00:33:52;6.07;;;3.20;;
17283;SDS011;8760;52.248;20.952;2022-12-08T00:36:18;7.90;;;3.23;;
17283;SDS011;8760;52.248;20.952;2022-12-08T00:38:45;7.17;;;3.10;;
17283;SDS011;8760;52.248;20.952;2022-12-08T00:41:13;6.47;;;3.20;;
17283;SDS011;8760;52.248;20.952;2022-12-08T00:43:42;5.20;;;2.87;;
17283;SDS011;8760;52.248;20.952;2022-12-08T00:46:09;5.03;;;2.60;;
17283;SDS011;8760;52.248;20.952;2022-12-08T00:48:37;5.20;;;2.67;;
17283;SDS011;8760;52.248;20.952;2022-12-08T00:51:04;3.63;;;2.40;;
17283;SDS011;8760;52.248;20.952;2022-12-08T00:53:31;4.53;;;2.33;;
17283;SDS011;8760;52.248;20.952;2022-12-08T00:55:58;3.50;;;2.30;;
17283;SDS011;8760;52.248;20.952;2022-12-08T00:58:25;6.37;;;2.50;;
17283;SDS011;8760;52.248;20.952;2022-12-08T01:00:51;5.57;;;2.37;;
17283;SDS011;8760;52.248;20.952;2022-12-08T01:03:18;4.37;;;2.50;;
17283;SDS011;8760;52.248;20.952;2022-12-08T01:05:46;3.07;;;2.33;;
17283;SDS011;8760;52.248;20.952;2022-12-08T01:08:13;12.87;;;7.83;;
17283;SDS011;8760;52.248;20.952;2022-12-08T01:10:40;6.23;;;2.37;;
17283;SDS011;8760;52.248;20.952;2022-12-08T01:13:07;3.87;;;1.93;;
17283;SDS011;8760;52.248;20.952;2022-12-08T01:15:33;4.93;;;2.60;;
17283;SDS011;8760;52.248;20.952;2022-12-08T01:18:00;4.87;;;2.40;;
17283;SDS011;8760;52.248;20.952;2022-12-08T01:20:27;6.20;;;2.73;;
17283;SDS011;8760;52.248;20.952;2022-12-08T01:22:55;7.77;;;2.53;;
17283;SDS011;8760;52.248;20.952;2022-12-08T01:25:22;6.23;;;2.17;;
17283;SDS011;8760;52.248;20.952;2022-12-08T01:27:50;6.27;;;2.47;;
17283;SDS011;8760;52.248;20.952;2022-12-08T01:30:18;5.43;;;2.30;;
17283;SDS011;8760;52.248;20.952;2022-12-08T01:32:45;8.13;;;2.40;;
17283;SDS011;8760;52.248;20.952;2022-12-08T01:35:12;5.10;;;2.20;;
17283;SDS011;8760;52.248;20.952;2022-12-08T01:37:38;4.83;;;2.10;;
17283;SDS011;8760;52.248;20.952;2022-12-08T01:40:07;4.47;;;2.20;;
17283;SDS011;8760;52.248;20.952;2022-12-08T01:42:35;6.17;;;2.33;;
17283;SDS011;8760;52.248;20.952;2022-12-08T01:45:03;4.70;;;2.23;;
17283;SDS011;8760;52.248;20.952;2022-12-08T01:47:33;5.50;;;2.40;;
17283;SDS011;8760;52.248;20.952;2022-12-08T01:50:06;5.67;;;2.40;;
17283;SDS011;8760;52.248;20.952;2022-12-08T01:52:36;6.17;;;2.40;;
17283;SDS011;8760;52.248;20.952;2022-12-08T01:55:09;5.50;;;2.50;;
17283;SDS011;8760;52.248;20.952;2022-12-08T01:57:41;7.60;;;2.40;;
17283;SDS011;8760;52.248;20.952;2022-12-08T02:00:11;3.37;;;1.93;;
17283;SDS011;8760;52.248;20.952;2022-12-08T02:02:43;4.00;;;2.00;;
17283;SDS011;8760;52.248;20.952;2022-12-08T02:05:17;6.90;;;2.50;;
17283;SDS011;8760;52.248;20.952;2022-12-08T02:07:45;7.20;;;2.40;;
17283;SDS011;8760;52.248;20.952;2022-12-08T02:10:15;4.37;;;1.93;;
17283;SDS011;8760;52.248;20.952;2022-12-08T02:12:44;5.10;;;2.00;;
17283;SDS011;8760;52.248;20.952;2022-12-08T02:15:12;3.10;;;2.10;;
17283;SDS011;8760;52.248;20.952;2022-12-08T02:17:44;3.47;;;1.90;;
17283;SDS011;8760;52.248;20.952;2022-12-08T02:20:27;3.53;;;2.27;;
17283;SDS011;8760;52.248;20.952;2022-12-08T02:23:12;5.50;;;2.50;;
17283;SDS011;8760;52.248;20.952;2022-12-08T02:25:54;6.10;;;2.40;;
17283;SDS011;8760;52.248;20.952;2022-12-08T02:28:42;3.47;;;1.93;;
17283;SDS011;8760;52.248;20.952;2022-12-08T02:31:23;4.67;;;2.30;;
17283;SDS011;8760;52.248;20.952;2022-12-08T02:34:08;4.20;;;2.13;;
17283;SDS011;8760;52.248;20.952;2022-12-08T02:36:46;5.47;;;2.67;;
17283;SDS011;8760;52.248;20.952;2022-12-08T02:39:21;4.90;;;2.33;;
17283;SDS011;8760;52.248;20.952;2022-12-08T02:41:55;5.13;;;2.53;;
17283;SDS011;8760;52.248;20.952;2022-12-08T02:44:29;7.40;;;2.23;;
17283;SDS011;8760;52.248;20.952;2022-12-08T02:47:01;5.13;;;2.77;;
17283;SDS011;8760;52.248;20.952;2022-12-08T02:49:33;4.57;;;2.77;;
17283;SDS011;8760;52.248;20.952;2022-12-08T02:52:04;4.13;;;2.37;;
17283;SDS011;8760;52.248;20.952;2022-12-08T02:54:33;4.20;;;2.60;;
17283;SDS011;8760;52.248;20.952;2022-12-08T02:57:10;6.03;;;3.13;;
17283;SDS011;8760;52.248;20.952;2022-12-08T02:59:54;5.17;;;2.53;;
17283;SDS011;8760;52.248;20.952;2022-12-08T03:02:33;5.03;;;2.70;;
17283;SDS011;8760;52.248;20.952;2022-12-08T03:05:10;4.27;;;2.50;;
17283;SDS011;8760;52.248;20.952;2022-12-08T03:07:46;5.27;;;2.67;;
17283;SDS011;8760;52.248;20.952;2022-12-08T03:10:20;7.33;;;2.63;;
17283;SDS011;8760;52.248;20.952;2022-12-08T03:12:55;4.93;;;2.87;;
17283;SDS011;8760;52.248;20.952;2022-12-08T03:15:26;3.57;;;2.60;;
17283;SDS011;8760;52.248;20.952;2022-12-08T03:17:57;5.60;;;2.60;;
17283;SDS011;8760;52.248;20.952;2022-12-08T03:20:26;5.23;;;3.00;;
17283;SDS011;8760;52.248;20.952;2022-12-08T03:22:55;4.97;;;3.00;;
17283;SDS011;8760;52.248;20.952;2022-12-08T03:25:27;4.93;;;2.60;;
17283;SDS011;8760;52.248;20.952;2022-12-08T03:28:00;4.97;;;3.10;;
17283;SDS011;8760;52.248;20.952;2022-12-08T03:30:27;9.53;;;3.33;;
17283;SDS011;8760;52.248;20.952;2022-12-08T03:32:58;7.30;;;3.50;;
17283;SDS011;8760;52.248;20.952;2022-12-08T03:35:32;5.03;;;3.03;;
17283;SDS011;8760;52.248;20.952;2022-12-08T03:38:01;5.83;;;3.27;;
17283;SDS011;8760;52.248;20.952;2022-12-08T03:40:28;5.10;;;3.00;;
17283;SDS011;8760;52.248;20.952;2022-12-08T03:42:55;4.87;;;3.20;;
17283;SDS011;8760;52.248;20.952;2022-12-08T03:45:22;7.37;;;3.47;;
17283;SDS011;8760;52.248;20.952;2022-12-08T03:47:49;6.23;;;3.40;;
17283;SDS011;8760;52.248;20.952;2022-12-08T03:50:16;8.43;;;4.00;;
17283;SDS011;8760;52.248;20.952;2022-12-08T03:52:44;7.33;;;4.00;;
17283;SDS011;8760;52.248;20.952;2022-12-08T03:55:11;7.43;;;3.67;;
17283;SDS011;8760;52.248;20.952;2022-12-08T03:57:38;6.83;;;3.90;;
17283;SDS011;8760;52.248;20.952;2022-12-08T04:00:06;7.33;;;3.67;;
17283;SDS011;8760;52.248;20.952;2022-12-08T04:02:34;6.10;;;4.20;;
17283;SDS011;8760;52.248;20.952;2022-12-08T04:05:01;7.90;;;4.10;;
17283;SDS011;8760;52.248;20.952;2022-12-08T04:07:28;9.07;;;4.60;;
17283;SDS011;8760;52.248;20.952;2022-12-08T04:09:56;7.27;;;4.50;;
17283;SDS011;8760;52.248;20.952;2022-12-08T04:12:23;6.73;;;4.57;;
17283;SDS011;8760;52.248;20.952;2022-12-08T04:14:50;7.20;;;4.40;;
17283;SDS011;8760;52.248;20.952;2022-12-08T04:17:17;7.33;;;4.57;;
17283;SDS011;8760;52.248;20.952;2022-12-08T04:19:44;6.93;;;4.90;;
17283;SDS011;8760;52.248;20.952;2022-12-08T04:22:11;8.27;;;4.93;;
17283;SDS011;8760;52.248;20.952;2022-12-08T04:24:38;8.80;;;4.80;;
17283;SDS011;8760;52.248;20.952;2022-12-08T04:27:06;7.87;;;4.93;;
17283;SDS011;8760;52.248;20.952;2022-12-08T04:29:33;8.23;;;5.00;;
17283;SDS011;8760;52.248;20.952;2022-12-08T04:32:00;8.53;;;5.53;;
17283;SDS011;8760;52.248;20.952;2022-12-08T04:34:27;8.10;;;4.90;;
17283;SDS011;8760;52.248;20.952;2022-12-08T04:36:53;7.67;;;5.17;;
17283;SDS011;8760;52.248;20.952;2022-12-08T04:39:21;9.30;;;5.53;;
17283;SDS011;8760;52.248;20.952;2022-12-08T04:41:47;8.53;;;5.80;;
17283;SDS011;8760;52.248;20.952;2022-12-08T04:44:16;7.67;;;4.70;;
17283;SDS011;8760;52.248;20.952;2022-12-08T04:46:43;11.63;;;5.30;;
17283;SDS011;8760;52.248;20.952;2022-12-08T04:49:09;12.33;;;5.90;;
17283;SDS011;8760;52.248;20.952;2022-12-08T04:51:36;8.30;;;5.33;;
17283;SDS011;8760;52.248;20.952;2022-12-08T04:54:03;8.47;;;5.23;;
17283;SDS011;8760;52.248;20.952;2022-12-08T04:56:30;9.03;;;5.67;;
17283;SDS011;8760;52.248;20.952;2022-12-08T04:58:57;9.17;;;5.43;;
17283;SDS011;8760;52.248;20.952;2022-12-08T05:01:25;9.40;;;6.13;;
17283;SDS011;8760;52.248;20.952;2022-12-08T05:03:52;8.00;;;6.00;;
17283;SDS011;8760;52.248;20.952;2022-12-08T05:06:19;8.30;;;5.50;;
17283;SDS011;8760;52.248;20.952;2022-12-08T05:08:46;7.83;;;5.33;;
17283;SDS011;8760;52.248;20.952;2022-12-08T05:11:13;10.20;;;5.40;;
17283;SDS011;8760;52.248;20.952;2022-12-08T05:13:39;9.10;;;5.80;;
17283;SDS011;8760;52.248;20.952;2022-12-08T05:16:08;9.80;;;5.00;;
17283;SDS011;8760;52.248;20.952;2022-12-08T05:18:37;8.87;;;5.47;;
17283;SDS011;8760;52.248;20.952;2022-12-08T05:21:06;9.57;;;5.80;;
17283;SDS011;8760;52.248;20.952;2022-12-08T05:23:33;9.37;;;5.50;;
17283;SDS011;8760;52.248;20.952;2022-12-08T05:26:00;8.60;;;5.90;;
17283;SDS011;8760;52.248;20.952;2022-12-08T05:28:27;8.90;;;5.87;;
17283;SDS011;8760;52.248;20.952;2022-12-08T05:30:54;8.67;;;6.00;;
17283;SDS011;8760;52.248;20.952;2022-12-08T05:33:21;8.87;;;5.80;;
17283;SDS011;8760;52.248;20.952;2022-12-08T05:35:49;10.70;;;5.90;;
17283;SDS011;8760;52.248;20.952;2022-12-08T05:38:16;8.10;;;5.80;;
17283;SDS011;8760;52.248;20.952;2022-12-08T05:40:44;9.83;;;6.03;;
17283;SDS011;8760;52.248;20.952;2022-12-08T05:43:11;11.40;;;6.57;;
17283;SDS011;8760;52.248;20.952;2022-12-08T05:45:38;11.47;;;6.13;;
17283;SDS011;8760;52.248;20.952;2022-12-08T05:48:04;10.33;;;6.23;;
17283;SDS011;8760;52.248;20.952;2022-12-08T05:50:31;9.93;;;6.53;;
17283;SDS011;8760;52.248;20.952;2022-12-08T05:52:59;10.93;;;6.17;;
17283;SDS011;8760;52.248;20.952;2022-12-08T05:55:26;11.13;;;5.97;;
17283;SDS011;8760;52.248;20.952;2022-12-08T05:57:53;8.50;;;5.90;;
17283;SDS011;8760;52.248;20.952;2022-12-08T06:00:20;9.90;;;5.97;;
17283;SDS011;8760;52.248;20.952;2022-12-08T06:02:47;11.67;;;5.83;;
17283;SDS011;8760;52.248;20.952;2022-12-08T06:05:14;9.40;;;6.70;;
17283;SDS011;8760;52.248;20.952;2022-12-08T06:07:41;9.17;;;6.37;;
17283;SDS011;8760;52.248;20.952;2022-12-08T06:10:10;14.27;;;6.83;;
17283;SDS011;8760;52.248;20.952;2022-12-08T06:12:37;12.13;;;6.67;;
17283;SDS011;8760;52.248;20.952;2022-12-08T06:15:04;13.17;;;6.77;;
17283;SDS011;8760;52.248;20.952;2022-12-08T06:17:32;11.40;;;6.77;;
17283;SDS011;8760;52.248;20.952;2022-12-08T06:20:00;14.03;;;6.47;;
17283;SDS011;8760;52.248;20.952;2022-12-08T06:22:27;15.17;;;7.17;;
17283;SDS011;8760;52.248;20.952;2022-12-08T06:24:54;11.03;;;6.50;;
17283;SDS011;8760;52.248;20.952;2022-12-08T06:27:22;9.90;;;6.23;;
17283;SDS011;8760;52.248;20.952;2022-12-08T06:29:49;12.97;;;7.27;;
17283;SDS011;8760;52.248;20.952;2022-12-08T06:32:16;12.60;;;6.93;;
17283;SDS011;8760;52.248;20.952;2022-12-08T06:34:43;12.70;;;6.70;;
17283;SDS011;8760;52.248;20.952;2022-12-08T06:37:10;12.20;;;6.60;;
17283;SDS011;8760;52.248;20.952;2022-12-08T06:39:37;13.70;;;6.87;;
17283;SDS011;8760;52.248;20.952;2022-12-08T06:42:04;13.17;;;7.43;;
17283;SDS011;8760;52.248;20.952;2022-12-08T06:44:50;13.50;;;7.57;;
17283;SDS011;8760;52.248;20.952;2022-12-08T06:47:17;12.67;;;7.33;;
17283;SDS011;8760;52.248;20.952;2022-12-08T06:49:45;14.93;;;8.17;;
17283;SDS011;8760;52.248;20.952;2022-12-08T06:52:12;11.90;;;7.47;;
17283;SDS011;8760;52.248;20.952;2022-12-08T06:54:39;12.37;;;6.83;;
17283;SDS011;8760;52.248;20.952;2022-12-08T06:57:06;14.43;;;6.77;;
17283;SDS011;8760;52.248;20.952;2022-12-08T06:59:33;11.17;;;6.77;;
17283;SDS011;8760;52.248;20.952;2022-12-08T07:02:01;12.77;;;6.87;;
17283;SDS011;8760;52.248;20.952;2022-12-08T07:04:28;9.73;;;6.20;;
17283;SDS011;8760;52.248;20.952;2022-12-08T07:06:55;9.77;;;6.13;;
17283;SDS011;8760;52.248;20.952;2022-12-08T07:09:22;10.77;;;6.50;;
17283;SDS011;8760;52.248;20.952;2022-12-08T07:11:49;11.37;;;7.13;;
17283;SDS011;8760;52.248;20.952;2022-12-08T07:14:15;13.07;;;7.17;;
17283;SDS011;8760;52.248;20.952;2022-12-08T07:16:44;14.00;;;6.80;;
17283;SDS011;8760;52.248;20.952;2022-12-08T07:19:12;11.13;;;6.13;;
17283;SDS011;8760;52.248;20.952;2022-12-08T07:21:39;9.03;;;6.00;;
17283;SDS011;8760;52.248;20.952;2022-12-08T07:24:06;12.10;;;6.60;;
17283;SDS011;8760;52.248;20.952;2022-12-08T07:26:34;13.40;;;6.93;;
17283;SDS011;8760;52.248;20.952;2022-12-08T07:29:00;11.03;;;7.23;;
17283;SDS011;8760;52.248;20.952;2022-12-08T07:31:28;11.27;;;6.67;;
17283;SDS011;8760;52.248;20.952;2022-12-08T07:33:55;14.33;;;7.47;;
17283;SDS011;8760;52.248;20.952;2022-12-08T07:36:24;12.07;;;7.13;;
17283;SDS011;8760;52.248;20.952;2022-12-08T07:38:51;9.93;;;6.93;;
17283;SDS011;8760;52.248;20.952;2022-12-08T07:41:20;11.77;;;6.97;;
17283;SDS011;8760;52.248;20.952;2022-12-08T07:43:48;13.90;;;7.13;;
17283;SDS011;8760;52.248;20.952;2022-12-08T07:46:17;13.30;;;7.40;;
17283;SDS011;8760;52.248;20.952;2022-12-08T07:48:47;9.43;;;6.43;;
17283;SDS011;8760;52.248;20.952;2022-12-08T07:51:14;14.77;;;7.23;;
17283;SDS011;8760;52.248;20.952;2022-12-08T07:53:44;13.73;;;7.30;;
17283;SDS011;8760;52.248;20.952;2022-12-08T07:56:12;10.33;;;6.60;;
17283;SDS011;8760;52.248;20.952;2022-12-08T07:58:39;13.20;;;7.20;;
17283;SDS011;8760;52.248;20.952;2022-12-08T08:01:16;15.40;;;7.07;;
17283;SDS011;8760;52.248;20.952;2022-12-08T08:03:45;10.07;;;6.10;;
17283;SDS011;8760;52.248;20.952;2022-12-08T08:06:12;13.03;;;6.80;;
17283;SDS011;8760;52.248;20.952;2022-12-08T08:08:39;12.40;;;6.23;;
17283;SDS011;8760;52.248;20.952;2022-12-08T08:11:07;12.77;;;6.77;;
17283;SDS011;8760;52.248;20.952;2022-12-08T08:13:34;10.23;;;6.60;;
17283;SDS011;8760;52.248;20.952;2022-12-08T08:16:02;15.47;;;6.73;;
17283;SDS011;8760;52.248;20.952;2022-12-08T08:18:30;11.20;;;6.50;;
17283;SDS011;8760;52.248;20.952;2022-12-08T08:20:57;12.73;;;6.63;;
17283;SDS011;8760;52.248;20.952;2022-12-08T08:23:24;10.77;;;6.37;;
17283;SDS011;8760;52.248;20.952;2022-12-08T08:25:51;14.80;;;7.13;;
17283;SDS011;8760;52.248;20.952;2022-12-08T08:28:19;11.00;;;6.43;;
17283;SDS011;8760;52.248;20.952;2022-12-08T08:30:47;11.83;;;6.50;;
17283;SDS011;8760;52.248;20.952;2022-12-08T08:33:15;11.00;;;6.33;;
17283;SDS011;8760;52.248;20.952;2022-12-08T08:35:41;11.93;;;6.53;;
17283;SDS011;8760;52.248;20.952;2022-12-08T08:38:08;13.90;;;6.60;;
17283;SDS011;8760;52.248;20.952;2022-12-08T08:40:35;14.70;;;6.90;;
17283;SDS011;8760;52.248;20.952;2022-12-08T08:43:03;11.13;;;6.20;;
17283;SDS011;8760;52.248;20.952;2022-12-08T08:45:32;10.37;;;6.17;;
17283;SDS011;8760;52.248;20.952;2022-12-08T08:48:00;12.77;;;6.40;;
17283;SDS011;8760;52.248;20.952;2022-12-08T08:50:26;12.20;;;6.53;;
17283;SDS011;8760;52.248;20.952;2022-12-08T08:52:53;13.73;;;6.60;;
17283;SDS011;8760;52.248;20.952;2022-12-08T08:55:20;10.27;;;6.07;;
17283;SDS011;8760;52.248;20.952;2022-12-08T08:57:47;9.33;;;6.23;;
17283;SDS011;8760;52.248;20.952;2022-12-08T09:00:14;11.73;;;6.57;;
17283;SDS011;8760;52.248;20.952;2022-12-08T09:02:43;9.93;;;6.43;;
17283;SDS011;8760;52.248;20.952;2022-12-08T09:05:10;12.50;;;6.60;;
17283;SDS011;8760;52.248;20.952;2022-12-08T09:07:37;11.37;;;5.93;;
17283;SDS011;8760;52.248;20.952;2022-12-08T09:10:04;11.53;;;6.20;;
17283;SDS011;8760;52.248;20.952;2022-12-08T09:12:32;9.97;;;6.20;;
17283;SDS011;8760;52.248;20.952;2022-12-08T09:14:59;10.43;;;6.27;;
17283;SDS011;8760;52.248;20.952;2022-12-08T09:17:26;12.73;;;6.83;;
17283;SDS011;8760;52.248;20.952;2022-12-08T09:19:54;9.40;;;5.60;;
17283;SDS011;8760;52.248;20.952;2022-12-08T09:22:21;8.83;;;5.17;;
17283;SDS011;8760;52.248;20.952;2022-12-08T09:24:48;9.80;;;5.37;;
17283;SDS011;8760;52.248;20.952;2022-12-08T09:27:15;9.33;;;5.90;;
17283;SDS011;8760;52.248;20.952;2022-12-08T09:29:42;9.00;;;6.00;;
17283;SDS011;8760;52.248;20.952;2022-12-08T09:32:09;11.40;;;5.93;;
17283;SDS011;8760;52.248;20.952;2022-12-08T09:34:35;11.00;;;5.90;;
17283;SDS011;8760;52.248;20.952;2022-12-08T09:37:04;8.10;;;6.03;;
17283;SDS011;8760;52.248;20.952;2022-12-08T09:39:30;12.33;;;6.53;;
17283;SDS011;8760;52.248;20.952;2022-12-08T09:41:58;9.87;;;6.57;;
17283;SDS011;8760;52.248;20.952;2022-12-08T09:44:46;12.30;;;6.53;;
17283;SDS011;8760;52.248;20.952;2022-12-08T09:47:21;10.63;;;6.53;;
17283;SDS011;8760;52.248;20.952;2022-12-08T09:49:54;9.73;;;6.27;;
17283;SDS011;8760;52.248;20.952;2022-12-08T09:52:28;10.20;;;6.50;;
17283;SDS011;8760;52.248;20.952;2022-12-08T09:55:02;13.50;;;7.27;;
17283;SDS011;8760;52.248;20.952;2022-12-08T09:57:36;11.20;;;7.13;;
17283;SDS011;8760;52.248;20.952;2022-12-08T10:00:04;10.47;;;7.23;;
17283;SDS011;8760;52.248;20.952;2022-12-08T10:02:32;12.97;;;7.87;;
17283;SDS011;8760;52.248;20.952;2022-12-08T10:04:59;14.37;;;8.57;;
17283;SDS011;8760;52.248;20.952;2022-12-08T10:07:31;12.70;;;7.87;;
17283;SDS011;8760;52.248;20.952;2022-12-08T10:10:05;14.17;;;8.30;;
17283;SDS011;8760;52.248;20.952;2022-12-08T10:12:40;13.27;;;8.23;;
17283;SDS011;8760;52.248;20.952;2022-12-08T10:15:18;16.17;;;8.93;;
17283;SDS011;8760;52.248;20.952;2022-12-08T10:18:09;12.97;;;8.10;;
17283;SDS011;8760;52.248;20.952;2022-12-08T10:20:41;13.93;;;8.63;;
17283;SDS011;8760;52.248;20.952;2022-12-08T10:23:14;14.73;;;9.23;;
17283;SDS011;8760;52.248;20.952;2022-12-08T10:25:47;17.63;;;9.07;;
17283;SDS011;8760;52.248;20.952;2022-12-08T10:28:14;14.30;;;9.57;;
17283;SDS011;8760;52.248;20.952;2022-12-08T10:30:41;15.40;;;9.57;;
17283;SDS011;8760;52.248;20.952;2022-12-08T10:33:09;18.83;;;10.07;;
17283;SDS011;8760;52.248;20.952;2022-12-08T10:35:41;15.83;;;11.37;;
17283;SDS011;8760;52.248;20.952;2022-12-08T10:38:16;15.73;;;11.00;;
17283;SDS011;8760;52.248;20.952;2022-12-08T10:40:45;15.27;;;10.13;;
17283;SDS011;8760;52.248;20.952;2022-12-08T10:43:13;14.10;;;9.77;;
17283;SDS011;8760;52.248;20.952;2022-12-08T10:45:42;16.37;;;10.40;;
17283;SDS011;8760;52.248;20.952;2022-12-08T10:48:12;15.77;;;10.37;;
17283;SDS011;8760;52.248;20.952;2022-12-08T10:50:43;13.67;;;9.83;;
17283;SDS011;8760;52.248;20.952;2022-12-08T10:53:11;15.23;;;10.50;;
17283;SDS011;8760;52.248;20.952;2022-12-08T10:55:42;14.57;;;10.57;;
17283;SDS011;8760;52.248;20.952;2022-12-08T10:58:23;18.03;;;10.63;;
17283;SDS011;8760;52.248;20.952;2022-12-08T11:00:55;17.93;;;10.93;;
17283;SDS011;8760;52.248;20.952;2022-12-08T11:03:24;14.70;;;10.47;;
17283;SDS011;8760;52.248;20.952;2022-12-08T11:05:55;14.50;;;10.77;;
17283;SDS011;8760;52.248;20.952;2022-12-08T11:08:26;16.87;;;10.80;;
17283;SDS011;8760;52.248;20.952;2022-12-08T11:10:55;19.30;;;11.27;;
17283;SDS011;8760;52.248;20.952;2022-12-08T11:13:22;20.00;;;12.27;;
17283;SDS011;8760;52.248;20.952;2022-12-08T11:15:51;20.87;;;12.73;;
17283;SDS011;8760;52.248;20.952;2022-12-08T11:18:21;20.37;;;12.43;;
17283;SDS011;8760;52.248;20.952;2022-12-08T11:20:57;19.73;;;13.43;;
17283;SDS011;8760;52.248;20.952;2022-12-08T11:23:27;19.60;;;13.83;;
17283;SDS011;8760;52.248;20.952;2022-12-08T11:25:56;22.00;;;12.97;;
17283;SDS011;8760;52.248;20.952;2022-12-08T11:28:28;18.77;;;12.07;;
17283;SDS011;8760;52.248;20.952;2022-12-08T11:30:56;14.93;;;11.50;;
17283;SDS011;8760;52.248;20.952;2022-12-08T11:33:27;19.67;;;11.90;;
17283;SDS011;8760;52.248;20.952;2022-12-08T11:35:56;21.93;;;13.27;;
17283;SDS011;8760;52.248;20.952;2022-12-08T11:38:27;17.23;;;12.57;;
17283;SDS011;8760;52.248;20.952;2022-12-08T11:40:57;16.80;;;12.20;;
17283;SDS011;8760;52.248;20.952;2022-12-08T11:43:30;17.60;;;13.43;;
17283;SDS011;8760;52.248;20.952;2022-12-08T11:46:08;19.90;;;13.33;;
17283;SDS011;8760;52.248;20.952;2022-12-08T11:48:39;18.97;;;13.87;;
17283;SDS011;8760;52.248;20.952;2022-12-08T11:51:11;24.53;;;14.40;;
17283;SDS011;8760;52.248;20.952;2022-12-08T11:53:42;21.60;;;14.23;;
17283;SDS011;8760;52.248;20.952;2022-12-08T11:56:19;22.47;;;14.57;;
17283;SDS011;8760;52.248;20.952;2022-12-08T11:58:52;19.60;;;13.93;;
17283;SDS011;8760;52.248;20.952;2022-12-08T12:01:22;20.80;;;14.80;;
17283;SDS011;8760;52.248;20.952;2022-12-08T12:03:56;23.20;;;14.57;;
17283;SDS011;8760;52.248;20.952;2022-12-08T12:09:37;23.73;;;15.97;;
17283;SDS011;8760;52.248;20.952;2022-12-08T12:12:19;25.60;;;15.73;;
17283;SDS011;8760;52.248;20.952;2022-12-08T12:18:02;23.03;;;15.67;;
17283;SDS011;8760;52.248;20.952;2022-12-08T12:20:36;25.33;;;16.80;;
17283;SDS011;8760;52.248;20.952;2022-12-08T12:23:08;23.33;;;16.30;;
17283;SDS011;8760;52.248;20.952;2022-12-08T12:25:44;24.97;;;16.53;;
17283;SDS011;8760;52.248;20.952;2022-12-08T12:28:17;21.13;;;15.70;;
17283;SDS011;8760;52.248;20.952;2022-12-08T12:30:49;25.80;;;15.77;;
17283;SDS011;8760;52.248;20.952;2022-12-08T12:33:22;24.60;;;15.93;;
17283;SDS011;8760;52.248;20.952;2022-12-08T12:35:50;25.83;;;15.57;;
17283;SDS011;8760;52.248;20.952;2022-12-08T12:38:21;25.17;;;15.90;;
17283;SDS011;8760;52.248;20.952;2022-12-08T12:41:23;22.57;;;15.13;;
17283;SDS011;8760;52.248;20.952;2022-12-08T12:47:04;22.83;;;14.60;;
17283;SDS011;8760;52.248;20.952;2022-12-08T12:50:03;25.30;;;15.60;;
17283;SDS011;8760;52.248;20.952;2022-12-08T12:52:40;24.90;;;16.53;;
17283;SDS011;8760;52.248;20.952;2022-12-08T12:58:35;24.10;;;15.87;;
17283;SDS011;8760;52.248;20.952;2022-12-08T13:04:11;26.13;;;16.63;;
17283;SDS011;8760;52.248;20.952;2022-12-08T13:06:40;25.23;;;16.13;;
17283;SDS011;8760;52.248;20.952;2022-12-08T13:12:00;25.07;;;16.27;;
17283;SDS011;8760;52.248;20.952;2022-12-08T13:14:35;24.27;;;16.17;;
17283;SDS011;8760;52.248;20.952;2022-12-08T13:17:11;23.63;;;16.10;;
17283;SDS011;8760;52.248;20.952;2022-12-08T13:19:41;26.23;;;16.40;;
17283;SDS011;8760;52.248;20.952;2022-12-08T13:25:44;25.67;;;17.17;;
17283;SDS011;8760;52.248;20.952;2022-12-08T13:28:20;26.17;;;16.80;;
17283;SDS011;8760;52.248;20.952;2022-12-08T13:30:51;26.87;;;16.37;;
17283;SDS011;8760;52.248;20.952;2022-12-08T13:33:28;25.83;;;17.03;;
17283;SDS011;8760;52.248;20.952;2022-12-08T13:36:02;28.57;;;18.07;;
17283;SDS011;8760;52.248;20.952;2022-12-08T13:38:44;28.27;;;17.77;;
17283;SDS011;8760;52.248;20.952;2022-12-08T13:41:15;28.47;;;18.00;;
17283;SDS011;8760;52.248;20.952;2022-12-08T13:43:46;23.07;;;16.83;;
17283;SDS011;8760;52.248;20.952;2022-12-08T13:46:19;27.03;;;17.70;;
17283;SDS011;8760;52.248;20.952;2022-12-08T13:48:55;24.53;;;15.57;;
17283;SDS011;8760;52.248;20.952;2022-12-08T13:51:25;25.53;;;17.33;;
17283;SDS011;8760;52.248;20.952;2022-12-08T13:53:57;27.87;;;17.80;;
17283;SDS011;8760;52.248;20.952;2022-12-08T13:56:28;25.43;;;17.27;;
17283;SDS011;8760;52.248;20.952;2022-12-08T13:59:07;27.17;;;18.47;;
17283;SDS011;8760;52.248;20.952;2022-12-08T14:01:49;27.17;;;18.03;;
17283;SDS011;8760;52.248;20.952;2022-12-08T14:04:18;25.83;;;17.57;;
17283;SDS011;8760;52.248;20.952;2022-12-08T14:06:47;27.10;;;17.63;;
17283;SDS011;8760;52.248;20.952;2022-12-08T14:09:17;26.60;;;16.73;;
17283;SDS011;8760;52.248;20.952;2022-12-08T14:11:49;27.87;;;18.60;;
17283;SDS011;8760;52.248;20.952;2022-12-08T14:14:21;26.50;;;17.80;;
17283;SDS011;8760;52.248;20.952;2022-12-08T14:16:51;26.00;;;16.93;;
17283;SDS011;8760;52.248;20.952;2022-12-08T14:19:21;28.10;;;17.77;;
17283;SDS011;8760;52.248;20.952;2022-12-08T14:21:50;27.07;;;17.77;;
17283;SDS011;8760;52.248;20.952;2022-12-08T14:24:21;26.57;;;17.43;;
17283;SDS011;8760;52.248;20.952;2022-12-08T14:26:49;27.73;;;16.87;;
17283;SDS011;8760;52.248;20.952;2022-12-08T14:29:31;24.93;;;16.83;;
17283;SDS011;8760;52.248;20.952;2022-12-08T14:32:17;25.40;;;16.43;;
17283;SDS011;8760;52.248;20.952;2022-12-08T14:34:51;25.07;;;17.10;;
17283;SDS011;8760;52.248;20.952;2022-12-08T14:37:20;28.53;;;18.13;;
17283;SDS011;8760;52.248;20.952;2022-12-08T14:39:48;25.37;;;16.47;;
17283;SDS011;8760;52.248;20.952;2022-12-08T14:42:19;25.57;;;17.00;;
17283;SDS011;8760;52.248;20.952;2022-12-08T14:44:53;28.03;;;17.40;;
17283;SDS011;8760;52.248;20.952;2022-12-08T14:53:11;26.57;;;17.37;;
17283;SDS011;8760;52.248;20.952;2022-12-08T14:55:39;26.00;;;17.17;;
17283;SDS011;8760;52.248;20.952;2022-12-08T14:58:14;30.40;;;16.93;;
17283;SDS011;8760;52.248;20.952;2022-12-08T15:00:43;31.80;;;17.87;;
17283;SDS011;8760;52.248;20.952;2022-12-08T15:03:12;24.83;;;16.97;;
17283;SDS011;8760;52.248;20.952;2022-12-08T15:05:42;27.77;;;17.77;;
17283;SDS011;8760;52.248;20.952;2022-12-08T15:08:10;28.80;;;17.00;;
17283;SDS011;8760;52.248;20.952;2022-12-08T15:10:37;26.87;;;16.60;;
17283;SDS011;8760;52.248;20.952;2022-12-08T15:13:06;25.40;;;17.13;;
17283;SDS011;8760;52.248;20.952;2022-12-08T15:15:48;23.93;;;17.13;;
17283;SDS011;8760;52.248;20.952;2022-12-08T15:18:17;26.23;;;17.23;;
17283;SDS011;8760;52.248;20.952;2022-12-08T15:20:47;24.67;;;17.43;;